Time;durP1;ratioP1;P1;durP2;ratioP2;P2;SDS_P1;SDS_P2;PMS_P1;PMS_P2;Temp;Humidity;BMP_temperature;BMP_pressure;BME280_temperature;BME280_humidity;BME280_pressure;Samples;Min_cycle;Max_cycle;Signal;HPM_P1;HPM_P2
2023/11/29 00:02:08;;;;;;;0.85;0.77;;;;;;;3.23;100.00;100320.88;5032171;28;20033;-73
2023/11/29 00:04:34;;;;;;;1.13;1.05;;;;;;;3.23;100.00;100319.13;5033006;28;20124;-73
2023/11/29 00:06:59;;;;;;;4.18;1.20;;;;;;;3.26;100.00;100323.41;5034838;28;20041;-73
2023/11/29 00:09:24;;;;;;;3.42;1.27;;;;;;;3.25;100.00;100308.75;5034431;28;20233;-73
2023/11/29 00:11:50;;;;;;;2.55;0.90;;;;;;;3.26;100.00;100329.44;5034724;28;20053;-73
2023/11/29 00:14:15;;;;;;;3.42;0.98;;;;;;;3.25;100.00;100316.53;5033800;28;20037;-74
2023/11/29 00:16:40;;;;;;;6.05;1.10;;;;;;;3.23;100.00;100302.78;5031645;28;20034;-74
2023/11/29 00:19:06;;;;;;;4.13;0.82;;;;;;;3.19;100.00;100306.31;5032760;28;20057;-73
2023/11/29 00:21:32;;;;;;;1.52;0.90;;;;;;;3.15;100.00;100289.97;5035292;28;20029;-73
2023/11/29 00:23:58;;;;;;;2.22;0.90;;;;;;;3.11;100.00;100280.56;5034938;28;20083;-73
2023/11/29 00:26:24;;;;;;;4.22;0.98;;;;;;;3.14;100.00;100280.50;5035051;28;20043;-73
2023/11/29 00:28:50;;;;;;;1.55;1.00;;;;;;;3.18;100.00;100274.38;5036387;28;20225;-73
2023/11/29 00:31:16;;;;;;;5.70;1.45;;;;;;;3.16;100.00;100265.78;5021037;28;20032;-73
2023/11/29 00:33:41;;;;;;;2.75;0.90;;;;;;;3.19;100.00;100267.50;5035299;28;20029;-73
2023/11/29 00:36:07;;;;;;;2.88;1.35;;;;;;;3.23;100.00;100267.38;5035868;28;20025;-73
2023/11/29 00:38:32;;;;;;;2.20;0.90;;;;;;;3.31;100.00;100266.38;5035334;28;20281;-73
2023/11/29 00:40:58;;;;;;;1.33;0.73;;;;;;;3.34;100.00;100269.75;5036352;28;20029;-73
2023/11/29 00:43:23;;;;;;;3.17;1.10;;;;;;;3.40;100.00;100250.66;5037924;28;20037;-73
2023/11/29 00:45:48;;;;;;;2.17;0.80;;;;;;;3.47;100.00;100244.47;5037961;28;20371;-73
2023/11/29 00:48:14;;;;;;;6.43;1.70;;;;;;;3.48;100.00;100243.59;5037527;28;20036;-73
2023/11/29 00:50:39;;;;;;;4.55;1.00;;;;;;;3.54;100.00;100242.63;5036853;28;20037;-73
2023/11/29 00:53:05;;;;;;;1.23;0.70;;;;;;;3.61;100.00;100242.44;5036964;28;20037;-73
2023/11/29 00:55:30;;;;;;;2.83;0.90;;;;;;;3.62;100.00;100238.09;5035000;28;20052;-73
2023/11/29 00:57:55;;;;;;;9.60;1.92;;;;;;;3.62;100.00;100241.56;5036319;28;20033;-73
2023/11/29 01:00:21;;;;;;;6.45;1.40;;;;;;;3.67;100.00;100235.44;5037608;28;20033;-73
2023/11/29 01:02:47;;;;;;;8.63;1.70;;;;;;;3.74;100.00;100243.03;5036950;28;20064;-73
2023/11/29 01:05:12;;;;;;;1.85;0.90;;;;;;;3.80;100.00;100224.78;5038128;28;20056;-73
2023/11/29 01:07:37;;;;;;;4.13;1.13;;;;;;;3.81;100.00;100242.00;5037346;28;20099;-73
2023/11/29 01:10:03;;;;;;;3.75;1.35;;;;;;;3.84;100.00;100239.34;5037281;28;20197;-73
2023/11/29 01:12:29;;;;;;;5.03;1.05;;;;;;;3.88;100.00;100249.66;5037951;28;20053;-73
2023/11/29 01:14:54;;;;;;;3.45;1.00;;;;;;;3.84;100.00;100228.16;5037622;28;20033;-73
2023/11/29 01:17:19;;;;;;;2.38;0.80;;;;;;;3.84;100.00;100244.53;5037448;28;20045;-73
2023/11/29 01:19:45;;;;;;;1.45;0.93;;;;;;;3.90;100.00;100227.16;5037831;28;20053;-73
2023/11/29 01:22:10;;;;;;;1.58;0.90;;;;;;;3.93;100.00;100227.94;5038348;28;20293;-73
2023/11/29 01:24:36;;;;;;;11.32;1.17;;;;;;;3.92;100.00;100234.00;5032583;28;20029;-73
2023/11/29 01:27:01;;;;;;;5.07;1.30;;;;;;;3.90;100.00;100219.38;5037702;28;20033;-73
2023/11/29 01:29:26;;;;;;;4.95;1.17;;;;;;;3.90;99.85;100219.38;5037589;28;20037;-73
2023/11/29 01:31:52;;;;;;;1.85;0.60;;;;;;;3.91;100.00;100203.81;5037472;28;20029;-73
2023/11/29 01:34:17;;;;;;;5.25;1.10;;;;;;;3.91;98.30;100213.31;5037025;28;20033;-73
2023/11/29 01:36:43;;;;;;;1.95;0.70;;;;;;;3.92;99.52;100204.66;5037516;28;20328;-73
2023/11/29 01:39:13;;;;;;;3.80;1.13;;;;;;;3.90;99.11;100203.84;5036826;28;20040;-73
2023/11/29 01:41:39;;;;;;;14.88;1.42;;;;;;;3.90;99.71;100206.44;5036261;28;20391;-73
2023/11/29 01:44:04;;;;;;;2.65;0.77;;;;;;;3.93;100.00;100202.03;5036544;28;20033;-73
2023/11/29 01:46:29;;;;;;;7.28;1.02;;;;;;;3.88;96.62;100213.41;5035854;28;20055;-73
2023/11/29 01:48:55;;;;;;;13.02;1.38;;;;;;;3.86;96.43;100203.06;5035983;28;20078;-73
2023/11/29 01:51:21;;;;;;;4.75;1.20;;;;;;;3.84;96.43;100218.63;5036765;28;20300;-73
2023/11/29 01:53:47;;;;;;;4.00;1.40;;;;;;;3.85;96.97;100209.97;5036365;28;20355;-73
2023/11/29 01:56:12;;;;;;;5.50;1.20;;;;;;;3.84;95.49;100207.44;5036071;28;20060;-73
2023/11/29 01:58:37;;;;;;;10.18;0.93;;;;;;;3.83;95.85;100203.97;5036484;28;20037;-73
2023/11/29 02:01:03;;;;;;;2.22;1.20;;;;;;;3.81;94.69;100204.91;5036476;28;20025;-73
2023/11/29 02:03:28;;;;;;;4.15;1.50;;;;;;;3.81;95.28;100202.31;5036035;28;20110;-73
2023/11/29 02:05:54;;;;;;;5.10;0.90;;;;;;;3.83;95.21;100203.13;5037197;28;20134;-73
2023/11/29 02:08:20;;;;;;;5.50;1.17;;;;;;;3.86;95.60;100200.47;5037552;28;20025;-73
2023/11/29 02:10:46;;;;;;;3.42;1.23;;;;;;;3.89;97.05;100194.34;5036270;28;20045;-73
2023/11/29 02:13:12;;;;;;;3.13;1.20;;;;;;;3.85;94.29;100186.66;5036392;28;20144;-73
2023/11/29 02:15:37;;;;;;;2.50;1.23;;;;;;;3.88;95.19;100196.09;5036625;28;20053;-73
2023/11/29 02:18:02;;;;;;;2.97;1.02;;;;;;;3.90;96.52;100209.88;5036785;28;20065;-73
2023/11/29 02:20:28;;;;;;;6.55;1.25;;;;;;;3.87;94.56;100196.97;5035945;28;20037;-73
2023/11/29 02:23:05;;;;;;;5.20;0.98;;;;;;;3.85;94.53;100194.41;5036365;28;20044;-73
2023/11/29 02:25:30;;;;;;;2.47;0.90;;;;;;;3.88;94.70;100188.34;5036110;28;20127;-73
2023/11/29 02:27:59;;;;;;;1.27;0.85;;;;;;;3.89;93.04;100190.03;5036008;28;20233;-73
2023/11/29 02:30:24;;;;;;;2.35;1.00;;;;;;;3.93;91.37;100180.44;5036976;28;20032;-73
2023/11/29 02:32:50;;;;;;;1.73;0.80;;;;;;;3.94;90.05;100193.34;5033540;28;20033;-73
2023/11/29 02:35:15;;;;;;;3.45;0.90;;;;;;;3.85;94.86;100211.72;5035644;28;20287;-73
2023/11/29 02:37:40;;;;;;;3.58;1.20;;;;;;;3.71;98.53;100226.72;5035047;28;20221;-73
2023/11/29 02:40:06;;;;;;;3.65;1.20;;;;;;;3.53;100.00;100192.59;5034976;28;20041;-73
2023/11/29 02:42:31;;;;;;;5.03;1.27;;;;;;;3.50;100.00;100191.78;5034501;28;20057;-73
2023/11/29 02:44:57;;;;;;;4.38;0.93;;;;;;;3.48;100.00;100188.41;5035254;28;20041;-73
2023/11/29 02:47:22;;;;;;;1.48;0.70;;;;;;;3.56;100.00;100176.97;5035687;28;20039;-73
2023/11/29 02:49:47;;;;;;;1.70;0.82;;;;;;;3.60;100.00;100178.63;5035728;28;20391;-73
2023/11/29 02:52:14;;;;;;;4.47;1.20;;;;;;;3.65;100.00;100187.09;5036072;28;20037;-73
2023/11/29 02:54:39;;;;;;;2.88;0.70;;;;;;;3.61;100.00;100179.47;5035401;28;20092;-73
2023/11/29 02:57:05;;;;;;;2.75;1.00;;;;;;;3.67;100.00;100162.94;5036122;28;20099;-73
2023/11/29 02:59:30;;;;;;;2.92;1.00;;;;;;;3.70;100.00;100144.72;5035837;28;20041;-73
2023/11/29 03:01:55;;;;;;;4.22;1.20;;;;;;;3.64;100.00;100150.91;5035452;28;20041;-73
2023/11/29 03:04:21;;;;;;;4.07;1.13;;;;;;;3.66;100.00;100149.13;5035967;28;20059;-73
2023/11/29 03:06:47;;;;;;;2.13;0.90;;;;;;;3.67;100.00;100140.47;5017852;28;20058;-73
2023/11/29 03:09:12;;;;;;;5.78;1.10;;;;;;;3.70;100.00;100144.72;5035590;28;20037;-73
2023/11/29 03:11:37;;;;;;;3.08;0.90;;;;;;;3.64;100.00;100141.41;5035694;28;20037;-74
2023/11/29 03:14:03;;;;;;;3.55;0.93;;;;;;;3.71;100.00;100147.28;5036155;28;20040;-73
2023/11/29 03:16:28;;;;;;;4.40;1.45;;;;;;;3.72;100.00;100141.22;5035911;28;20033;-73
2023/11/29 03:18:53;;;;;;;3.95;0.90;;;;;;;3.75;100.00;100127.34;5035023;28;20053;-73
2023/11/29 03:21:19;;;;;;;2.17;0.88;;;;;;;3.78;100.00;100127.25;5035978;28;20379;-73
2023/11/29 03:23:44;;;;;;;4.78;1.20;;;;;;;3.72;100.00;100119.66;5034761;28;20041;-73
2023/11/29 03:26:10;;;;;;;4.68;0.90;;;;;;;3.67;100.00;100124.09;5034582;28;20592;-74
2023/11/29 03:28:35;;;;;;;2.70;0.82;;;;;;;3.68;100.00;100120.63;5033882;28;20033;-74
2023/11/29 03:31:00;;;;;;;5.45;0.93;;;;;;;3.74;100.00;100117.88;5034147;28;20224;-74
2023/11/29 03:33:26;;;;;;;0.70;0.70;;;;;;;3.76;100.00;100111.75;5034030;28;20100;-74
2023/11/29 03:35:51;;;;;;;3.22;1.08;;;;;;;3.74;100.00;100112.69;5034143;28;20044;-74
2023/11/29 03:38:16;;;;;;;5.47;1.00;;;;;;;3.79;100.00;100113.44;5033713;28;20340;-74
2023/11/29 03:40:42;;;;;;;6.97;1.35;;;;;;;3.71;100.00;100139.53;5033687;28;20391;-73
2023/11/29 03:43:07;;;;;;;4.80;0.60;;;;;;;3.62;100.00;100144.88;5034018;28;20036;-74
2023/11/29 03:45:32;;;;;;;5.70;0.93;;;;;;;3.48;100.00;100139.19;5033707;28;20048;-74
2023/11/29 03:47:58;;;;;;;0.88;0.40;;;;;;;3.21;100.00;100147.53;5033517;28;20033;-74
2023/11/29 03:50:23;;;;;;;1.67;0.35;;;;;;;3.17;100.00;100139.88;5034193;28;20052;-74
2023/11/29 03:52:48;;;;;;;1.33;0.43;;;;;;;3.25;100.00;100128.44;5034515;28;20400;-74
2023/11/29 03:55:14;;;;;;;1.40;0.50;;;;;;;3.32;100.00;100120.56;5033869;28;20068;-74
2023/11/29 03:57:39;;;;;;;3.72;0.50;;;;;;;3.38;100.00;100112.66;5033718;28;20080;-74
2023/11/29 04:00:07;;;;;;;0.55;0.30;;;;;;;3.43;100.00;100109.06;5034037;28;20041;-74
2023/11/29 04:02:32;;;;;;;2.75;0.50;;;;;;;3.45;100.00;100109.03;5033604;28;20041;-74
2023/11/29 04:04:57;;;;;;;0.70;0.30;;;;;;;3.44;100.00;100120.31;5033525;28;20041;-75
2023/11/29 04:07:23;;;;;;;0.28;0.20;;;;;;;3.47;100.00;100107.25;5033943;28;20104;-74
2023/11/29 04:09:48;;;;;;;1.80;0.40;;;;;;;3.50;100.00;100101.19;5033339;28;20068;-75
2023/11/29 04:12:13;;;;;;;0.73;0.30;;;;;;;3.52;100.00;100092.47;5033747;28;20072;-75
2023/11/29 04:14:39;;;;;;;0.38;0.28;;;;;;;3.54;100.00;100095.03;5033412;28;20348;-75
2023/11/29 04:17:05;;;;;;;3.60;0.25;;;;;;;3.50;100.00;100088.25;5033372;28;20367;-75
2023/11/29 04:19:30;;;;;;;0.30;0.28;;;;;;;3.51;100.00;100087.34;5033332;28;20056;-75
2023/11/29 04:21:56;;;;;;;1.20;0.40;;;;;;;3.52;100.00;100074.34;5033442;28;20068;-75
2023/11/29 04:24:21;;;;;;;1.52;0.30;;;;;;;3.52;100.00;100065.75;5033850;28;20068;-75
2023/11/29 04:26:47;;;;;;;2.10;0.30;;;;;;;3.51;100.00;100062.31;5033069;28;20072;-75
2023/11/29 04:29:12;;;;;;;1.98;0.35;;;;;;;3.45;100.00;100054.69;5033408;28;20037;-75
2023/11/29 04:31:38;;;;;;;2.20;0.30;;;;;;;3.50;100.00;100052.00;5033547;28;20104;-75
2023/11/29 04:34:04;;;;;;;0.25;0.25;;;;;;;3.53;100.00;100024.28;5034224;28;20067;-75
2023/11/29 04:36:30;;;;;;;3.17;0.50;;;;;;;3.29;100.00;100028.31;5036935;28;20375;-74
2023/11/29 04:38:55;;;;;;;2.85;0.50;;;;;;;3.27;100.00;100030.06;5036788;28;20087;-75
2023/11/29 04:41:22;;;;;;;5.28;0.40;;;;;;;3.29;100.00;100037.81;5036569;28;20087;-75
2023/11/29 04:43:48;;;;;;;2.08;0.40;;;;;;;3.34;100.00;100041.16;5036726;28;20131;-75
2023/11/29 04:46:14;;;;;;;1.73;0.50;;;;;;;3.22;100.00;100058.66;5036652;28;20072;-74
2023/11/29 04:48:44;;;;;;;2.05;0.40;;;;;;;3.12;100.00;100048.56;5036624;28;20367;-74
2023/11/29 04:51:11;;;;;;;4.57;0.50;;;;;;;3.02;100.00;100050.47;5036773;28;20041;-74
2023/11/29 04:53:38;;;;;;;2.67;0.60;;;;;;;3.10;100.00;100061.53;5036426;28;20079;-74
2023/11/29 04:56:04;;;;;;;5.30;1.02;;;;;;;3.09;100.00;100057.22;5036891;28;20033;-74
2023/11/29 04:58:29;;;;;;;9.73;0.95;;;;;;;3.14;100.00;100060.56;5036347;28;20052;-74
2023/11/29 05:00:55;;;;;;;9.57;0.88;;;;;;;3.16;100.00;100063.97;5036182;28;20106;-74
2023/11/29 05:03:21;;;;;;;4.95;0.88;;;;;;;3.23;100.00;100072.44;5018463;28;20057;-74
2023/11/29 05:05:47;;;;;;;1.92;0.55;;;;;;;3.31;100.00;100080.91;5036662;28;20045;-74
2023/11/29 05:08:13;;;;;;;2.15;0.60;;;;;;;3.34;100.00;100087.72;5036635;28;20390;-74
2023/11/29 05:10:38;;;;;;;4.20;0.38;;;;;;;3.33;100.00;100084.31;5035671;28;20029;-74
2023/11/29 05:13:05;;;;;;;2.92;0.43;;;;;;;3.32;100.00;100085.19;5036520;28;20017;-74
2023/11/29 05:15:32;;;;;;;5.15;0.38;;;;;;;3.30;100.00;100086.13;5036109;28;20352;-74
2023/11/29 05:17:57;;;;;;;1.73;0.50;;;;;;;3.22;100.00;100068.16;5035866;28;20123;-74
2023/11/29 05:20:22;;;;;;;3.70;0.45;;;;;;;3.17;100.00;100060.50;5036439;28;20049;-74
2023/11/29 05:22:48;;;;;;;3.55;0.40;;;;;;;3.16;100.00;100053.63;5036124;28;20068;-74
2023/11/29 05:25:14;;;;;;;3.40;0.70;;;;;;;3.17;100.00;100051.91;5035623;28;20041;-74
2023/11/29 05:27:39;;;;;;;4.63;0.47;;;;;;;3.20;100.00;100051.81;5035806;28;20037;-74
2023/11/29 05:30:05;;;;;;;4.68;0.43;;;;;;;3.23;100.00;100054.34;5036025;28;20044;-74
2023/11/29 05:32:31;;;;;;;1.98;0.30;;;;;;;3.23;100.00;100057.75;5018111;28;20033;-74
2023/11/29 05:34:56;;;;;;;1.50;0.40;;;;;;;3.33;100.00;100060.13;5036289;28;20102;-74
2023/11/29 05:37:22;;;;;;;4.43;0.70;;;;;;;3.42;100.00;100083.22;5036021;28;20033;-74
2023/11/29 05:39:48;;;;;;;3.55;0.95;;;;;;;3.40;100.00;100104.00;5036257;28;20332;-73
2023/11/29 05:42:13;;;;;;;1.25;0.40;;;;;;;3.29;100.00;100099.94;5036168;28;20041;-74
2023/11/29 05:44:39;;;;;;;3.45;0.80;;;;;;;3.15;100.00;100087.31;5018174;28;20232;-74
2023/11/29 05:47:04;;;;;;;2.63;0.60;;;;;;;3.18;100.00;100067.38;5035305;28;20272;-74
2023/11/29 05:49:30;;;;;;;4.80;0.65;;;;;;;3.23;100.00;100075.03;5035765;28;20220;-74
2023/11/29 05:51:55;;;;;;;0.90;0.30;;;;;;;3.31;100.00;100078.31;5035923;28;20017;-74
2023/11/29 05:54:20;;;;;;;4.22;0.47;;;;;;;3.30;100.00;100079.19;5018347;28;20022;-74
2023/11/29 05:56:48;;;;;;;2.63;0.57;;;;;;;3.36;100.00;100084.22;5035508;28;20339;-73
2023/11/29 05:59:13;;;;;;;4.13;0.70;;;;;;;3.34;100.00;100082.56;5036148;28;20109;-74
2023/11/29 06:01:39;;;;;;;2.08;0.50;;;;;;;3.29;100.00;100081.81;5035380;28;20034;-74
2023/11/29 06:04:07;;;;;;;3.45;0.52;;;;;;;3.37;100.00;100096.28;5035250;28;20033;-74
2023/11/29 06:06:32;;;;;;;0.20;0.20;;;;;;;3.45;100.00;100099.53;5035577;28;20033;-74
2023/11/29 06:08:58;;;;;;;1.63;0.20;;;;;;;3.54;100.00;100100.22;5035355;28;20095;-72
2023/11/29 06:11:23;;;;;;;2.53;0.57;;;;;;;3.64;100.00;100109.47;5035104;28;20041;-72
2023/11/29 06:13:51;;;;;;;0.65;0.47;;;;;;;3.70;100.00;100111.91;5035816;28;20037;-74
2023/11/29 06:16:17;;;;;;;1.40;0.50;;;;;;;3.76;100.00;100113.50;5035569;28;20525;-74
2023/11/29 06:18:42;;;;;;;2.03;0.75;;;;;;;3.79;100.00;100100.47;5034418;28;20057;-73
2023/11/29 06:21:07;;;;;;;1.23;0.30;;;;;;;3.85;100.00;100106.34;5033020;28;20045;-74
2023/11/29 06:23:33;;;;;;;6.70;0.88;;;;;;;3.89;100.00;100108.88;5035344;28;20071;-74
2023/11/29 06:25:58;;;;;;;2.72;0.80;;;;;;;3.95;100.00;100114.75;5035219;28;20248;-73
2023/11/29 06:28:23;;;;;;;7.32;1.00;;;;;;;3.97;100.00;100107.78;5031288;28;20363;-73
2023/11/29 06:30:49;;;;;;;4.07;0.93;;;;;;;4.02;100.00;100118.03;5034798;28;20060;-73
2023/11/29 06:33:14;;;;;;;4.57;0.80;;;;;;;3.93;100.00;100119.13;5032426;28;20346;-74
2023/11/29 06:35:40;;;;;;;3.22;0.85;;;;;;;3.95;100.00;100124.28;5034948;28;20060;-74
2023/11/29 06:38:05;;;;;;;1.92;0.57;;;;;;;3.96;100.00;100137.16;5034604;28;20087;-74
2023/11/29 06:40:30;;;;;;;0.95;0.45;;;;;;;3.95;100.00;100134.66;5034770;28;20040;-74
2023/11/29 06:42:56;;;;;;;3.03;0.57;;;;;;;3.91;100.00;100146.81;5034784;28;20055;-74
2023/11/29 06:45:21;;;;;;;10.45;1.13;;;;;;;3.68;100.00;100151.69;5034284;28;20064;-74
2023/11/29 06:47:47;;;;;;;2.38;1.15;;;;;;;3.55;100.00;100159.75;5033858;28;20037;-74
2023/11/29 06:50:13;;;;;;;1.33;0.63;;;;;;;3.49;100.00;100153.84;5034041;28;20029;-74
2023/11/29 06:52:42;;;;;;;5.72;0.95;;;;;;;3.40;100.00;100157.47;5033775;28;20475;-74
2023/11/29 06:55:07;;;;;;;;;;;;;;;3.34;100.00;100160.22;5034789;28;20040;-74
2023/11/29 06:57:33;;;;;;;5.13;0.90;;;;;;;3.35;100.00;100169.69;5034311;28;19913;-74
2023/11/29 06:59:58;;;;;;;4.05;1.15;;;;;;;3.30;100.00;100171.53;5034128;28;20064;-74
2023/11/29 07:02:24;;;;;;;2.72;0.40;;;;;;;3.23;100.00;100165.63;5033963;28;20044;-74
2023/11/29 07:04:49;;;;;;;1.75;0.40;;;;;;;3.24;100.00;100175.94;5016169;28;20041;-74
2023/11/29 07:07:16;;;;;;;2.15;0.50;;;;;;;3.20;100.00;100176.00;5034548;28;20333;-74
2023/11/29 07:09:41;;;;;;;1.73;0.55;;;;;;;3.21;100.00;100169.97;5034051;28;20240;-74
2023/11/29 07:12:08;;;;;;;0.82;0.57;;;;;;;3.20;100.00;100173.44;5033486;28;20226;-74
2023/11/29 07:14:34;;;;;;;2.30;0.60;;;;;;;3.23;100.00;100179.38;5033176;28;20110;-74
2023/11/29 07:16:59;;;;;;;5.15;0.60;;;;;;;3.26;100.00;100178.50;5034285;28;20221;-74
2023/11/29 07:19:25;;;;;;;1.48;0.40;;;;;;;3.28;100.00;100175.88;5033543;28;20596;-74
2023/11/29 07:21:50;;;;;;;0.65;0.55;;;;;;;3.31;100.00;100186.16;5034069;28;20076;-74
2023/11/29 07:24:15;;;;;;;1.00;0.50;;;;;;;3.32;100.00;100188.69;5033234;28;20033;-74
2023/11/29 07:26:41;;;;;;;0.50;0.32;;;;;;;3.33;100.00;100186.97;5013254;28;20336;-74
2023/11/29 07:29:06;;;;;;;2.42;0.50;;;;;;;3.33;100.00;100180.06;5031635;28;20047;-74
2023/11/29 07:31:33;;;;;;;1.67;0.70;;;;;;;3.34;100.00;100188.69;5031741;28;20305;-74
2023/11/29 07:33:58;;;;;;;3.65;0.82;;;;;;;3.30;100.00;100195.66;5018466;28;20038;-74
2023/11/29 07:36:24;;;;;;;3.15;0.77;;;;;;;3.25;100.00;100202.66;5021669;28;20092;-74
2023/11/29 07:38:50;;;;;;;0.60;0.60;;;;;;;3.23;100.00;100207.84;5031460;28;20049;-74
2023/11/29 07:41:16;;;;;;;1.30;0.80;;;;;;;3.25;100.00;100211.25;5032405;28;20108;-74
2023/11/29 07:43:42;;;;;;;3.55;0.70;;;;;;;3.26;100.00;100209.56;5032386;28;20465;-74
2023/11/29 07:46:07;;;;;;;2.45;0.60;;;;;;;3.29;100.00;100216.38;5019179;28;20041;-74
2023/11/29 07:48:33;;;;;;;5.47;0.85;;;;;;;3.29;100.00;100206.88;5029089;28;20036;-74
2023/11/29 07:50:59;;;;;;;0.93;0.60;;;;;;;3.26;100.00;100217.31;5033716;28;20296;-74
2023/11/29 07:53:25;;;;;;;3.45;0.50;;;;;;;3.22;100.00;100220.81;5034185;28;20365;-74
2023/11/29 07:55:50;;;;;;;5.35;0.75;;;;;;;3.21;100.00;100224.31;5033168;28;20033;-74
2023/11/29 07:58:16;;;;;;;2.78;1.33;;;;;;;3.23;100.00;100228.56;5022965;28;20252;-74
2023/11/29 08:00:41;;;;;;;2.60;0.98;;;;;;;3.25;100.00;100234.56;5033075;28;20103;-74
2023/11/29 08:03:06;;;;;;;3.63;2.08;;;;;;;3.23;100.00;100230.31;5033189;28;20032;-74
2023/11/29 08:05:33;;;;;;;3.53;1.58;;;;;;;3.23;100.00;100230.31;5033874;28;20048;-74
2023/11/29 08:07:59;;;;;;;3.75;1.40;;;;;;;3.22;100.00;100233.75;5033750;28;20048;-74
2023/11/29 08:10:24;;;;;;;3.63;1.02;;;;;;;3.21;100.00;100239.84;5037210;28;20219;-74
2023/11/29 08:12:51;;;;;;;5.47;1.40;;;;;;;3.15;100.00;100252.91;5036831;28;20052;-74
2023/11/29 08:15:16;;;;;;;9.00;1.33;;;;;;;3.17;100.00;100257.16;5037689;28;20037;-74
2023/11/29 08:17:42;;;;;;;9.18;1.23;;;;;;;3.30;100.00;100262.94;5037200;28;20083;-74
2023/11/29 08:20:07;;;;;;;2.25;0.90;;;;;;;3.35;100.00;100268.88;5026185;28;20129;-74
2023/11/29 08:22:33;;;;;;;3.28;1.35;;;;;;;3.41;100.00;100267.91;5037472;28;20052;-74
2023/11/29 08:24:59;;;;;;;4.43;1.10;;;;;;;3.28;100.00;100282.00;5036771;28;20336;-74
2023/11/29 08:27:25;;;;;;;7.65;1.42;;;;;;;3.25;100.00;100295.81;5037280;28;20194;-74
2023/11/29 08:29:52;;;;;;;3.63;1.20;;;;;;;3.18;100.00;100291.66;5036858;28;20029;-74
2023/11/29 08:32:17;;;;;;;1.58;1.10;;;;;;;3.20;100.00;100293.34;5036187;28;20275;-74
2023/11/29 08:34:44;;;;;;;5.88;1.10;;;;;;;3.19;100.00;100298.53;5034228;28;20033;-74
2023/11/29 08:37:10;;;;;;;7.50;1.67;;;;;;;2.99;100.00;100299.75;5033799;28;20111;-74
2023/11/29 08:39:36;;;;;;;11.60;1.85;;;;;;;2.90;100.00;100306.84;5036369;28;20045;-74
2023/11/29 08:42:02;;;;;;;6.78;1.23;;;;;;;2.87;100.00;100313.78;5035980;28;20116;-74
2023/11/29 08:44:27;;;;;;;7.95;2.13;;;;;;;2.87;100.00;100308.59;5036216;28;20092;-74
2023/11/29 08:46:52;;;;;;;1.27;0.93;;;;;;;2.90;100.00;100327.53;5035807;28;20041;-74
2023/11/29 08:49:18;;;;;;;2.25;1.00;;;;;;;2.82;100.00;100325.03;5035092;28;20044;-74
2023/11/29 08:51:43;;;;;;;7.00;0.95;;;;;;;2.75;100.00;100315.69;5035642;28;20231;-74
2023/11/29 08:54:08;;;;;;;2.20;0.88;;;;;;;2.70;100.00;100318.38;5030359;28;20117;-74
2023/11/29 08:56:34;;;;;;;5.13;1.50;;;;;;;2.68;100.00;100310.63;5032583;28;20037;-74
2023/11/29 08:59:01;;;;;;;2.88;1.13;;;;;;;2.71;100.00;100314.03;5036128;28;20083;-74
2023/11/29 09:01:26;;;;;;;3.80;1.48;;;;;;;2.72;100.00;100313.16;5035404;28;20091;-74
2023/11/29 09:03:51;;;;;;;2.58;1.00;;;;;;;2.73;100.00;100310.56;5035605;28;20145;-74
2023/11/29 09:06:18;;;;;;;0.70;0.65;;;;;;;2.76;100.00;100315.66;5036009;28;20244;-74
2023/11/29 09:08:43;;;;;;;2.92;0.90;;;;;;;2.78;100.00;100313.91;5034904;28;20092;-74
2023/11/29 09:11:09;;;;;;;5.07;1.17;;;;;;;2.81;100.00;100300.94;5028029;28;20044;-74
2023/11/29 09:13:35;;;;;;;5.28;1.35;;;;;;;2.82;100.00;100307.81;5030394;28;20029;-74
2023/11/29 09:16:00;;;;;;;3.75;1.10;;;;;;;2.86;100.00;100309.47;5030102;28;20052;-74
2023/11/29 09:18:26;;;;;;;0.70;0.70;;;;;;;2.92;100.00;100311.09;5031088;28;20364;-74
2023/11/29 09:20:52;;;;;;;3.17;1.20;;;;;;;2.97;100.00;100317.03;5034018;28;20416;-74
2023/11/29 09:23:17;;;;;;;3.30;1.10;;;;;;;2.98;100.00;100321.31;5032383;28;20037;-74
2023/11/29 09:25:43;;;;;;;2.17;0.90;;;;;;;2.97;100.00;100319.63;5040450;28;20036;-74
2023/11/29 09:28:13;;;;;;;4.40;1.17;;;;;;;3.01;100.00;100320.44;5043829;28;20327;-74
2023/11/29 09:30:40;;;;;;;1.92;0.82;;;;;;;3.01;100.00;100325.59;5045915;28;20028;-74
2023/11/29 09:33:06;;;;;;;2.10;0.68;;;;;;;2.99;100.00;100335.97;5039721;28;20033;-74
2023/11/29 09:35:31;;;;;;;2.10;1.00;;;;;;;3.03;100.00;100339.34;5030964;28;20291;-74
2023/11/29 09:37:57;;;;;;;4.18;1.13;;;;;;;3.04;100.00;100336.75;5030468;28;20083;-74
2023/11/29 09:40:22;;;;;;;9.35;1.15;;;;;;;3.02;100.00;100348.88;5028491;28;20045;-74
2023/11/29 09:42:49;;;;;;;4.82;1.27;;;;;;;3.03;100.00;100349.69;5032880;28;20360;-74
2023/11/29 09:45:21;;;;;;;4.55;1.10;;;;;;;3.01;100.00;100347.13;5030487;28;20053;-74
2023/11/29 09:47:47;;;;;;;1.25;0.70;;;;;;;3.05;100.00;100332.41;5031828;28;20060;-74
2023/11/29 09:50:12;;;;;;;2.03;0.80;;;;;;;3.01;100.00;100346.28;5032681;28;20399;-74
2023/11/29 09:52:38;;;;;;;3.13;1.10;;;;;;;3.01;100.00;100344.56;5046124;28;20086;-74
2023/11/29 09:55:04;;;;;;;1.63;0.90;;;;;;;3.03;100.00;100347.97;5034367;28;20040;-74
2023/11/29 09:57:30;;;;;;;3.00;1.08;;;;;;;3.08;100.00;100346.16;5031085;28;20045;-74
2023/11/29 09:59:55;;;;;;;4.22;1.25;;;;;;;3.11;100.00;100334.03;5030126;28;20382;-74
2023/11/29 10:02:21;;;;;;;3.22;1.10;;;;;;;3.17;100.00;100326.19;5031248;28;20041;-74
2023/11/29 10:04:47;;;;;;;3.40;1.10;;;;;;;3.19;100.00;100327.00;5031214;28;20116;-74
2023/11/29 10:07:14;;;;;;;2.83;1.38;;;;;;;3.21;100.00;100336.44;5044362;28;20231;-74
2023/11/29 10:09:39;;;;;;;1.05;0.90;;;;;;;3.30;100.00;100338.00;5044537;28;20041;-74
2023/11/29 10:12:08;;;;;;;1.38;0.98;;;;;;;3.39;100.00;100336.97;5043328;28;20379;-74
2023/11/29 10:14:43;;;;;;;2.55;0.80;;;;;;;3.44;100.00;100342.94;5030694;28;20330;-74
2023/11/29 10:17:13;;;;;;;2.47;1.25;;;;;;;3.47;100.00;100342.84;5030802;28;20033;-74
2023/11/29 10:19:39;;;;;;;4.35;1.35;;;;;;;3.46;100.00;100352.38;5032831;28;20297;-74
2023/11/29 10:22:04;;;;;;;2.50;1.23;;;;;;;3.46;100.00;100351.53;5031546;28;20028;-74
2023/11/29 10:24:30;;;;;;;7.07;1.02;;;;;;;3.45;100.00;100345.47;5028966;28;20036;-74
2023/11/29 10:26:56;;;;;;;3.38;1.55;;;;;;;3.50;100.00;100353.16;5029176;28;20056;-74
2023/11/29 10:29:21;;;;;;;6.93;1.55;;;;;;;3.37;100.00;100351.69;5029476;28;20048;-74
2023/11/29 10:31:48;;;;;;;1.73;0.90;;;;;;;3.33;100.00;100347.44;5030053;28;20044;-74
2023/11/29 10:34:15;;;;;;;2.05;1.15;;;;;;;3.39;100.00;100349.94;5028084;28;20037;-74
2023/11/29 10:36:41;;;;;;;2.80;1.10;;;;;;;3.39;100.00;100355.09;5030164;28;20233;-74
2023/11/29 10:39:16;;;;;;;3.88;1.08;;;;;;;3.40;100.00;100356.78;5029731;28;20038;-74
2023/11/29 10:41:50;;;;;;;2.03;1.10;;;;;;;3.45;100.00;100355.81;5027064;28;20060;-74
2023/11/29 10:44:24;;;;;;;4.28;1.33;;;;;;;3.50;100.00;100352.31;5024860;28;20029;-74
2023/11/29 10:46:53;;;;;;;3.80;1.33;;;;;;;3.48;100.00;100357.50;5030369;28;20108;-74
2023/11/29 10:49:23;;;;;;;1.27;1.02;;;;;;;3.49;100.00;100348.00;5027897;28;20068;-74
2023/11/29 10:51:50;;;;;;;1.98;0.82;;;;;;;3.50;100.00;100347.13;5029274;28;20111;-74
2023/11/29 10:54:17;;;;;;;1.90;1.20;;;;;;;3.54;100.00;100343.59;5029617;28;20037;-74
2023/11/29 10:56:44;;;;;;;2.47;1.10;;;;;;;3.58;100.00;100338.31;5027807;28;20415;-74
2023/11/29 10:59:19;;;;;;;1.50;0.80;;;;;;;3.66;100.00;100345.94;5027447;28;20342;-74
2023/11/29 11:01:45;;;;;;;2.13;0.80;;;;;;;3.67;100.00;100339.03;5028029;28;20036;-74
2023/11/29 11:04:10;;;;;;;3.45;0.98;;;;;;;3.61;100.00;100338.25;5027358;28;21307;-74
2023/11/29 11:06:40;;;;;;;2.45;1.38;;;;;;;3.60;100.00;100339.16;5027991;28;20068;-74
2023/11/29 11:09:35;;;;;;;1.15;0.90;;;;;;;3.61;100.00;100340.84;5027862;28;20072;-74
2023/11/29 11:12:01;;;;;;;1.80;1.00;;;;;;;3.64;100.00;100339.94;5028307;28;20029;-74
2023/11/29 11:14:50;;;;;;;2.20;1.02;;;;;;;3.67;100.00;100345.03;5027847;28;20040;-74
2023/11/29 11:17:18;;;;;;;5.00;1.00;;;;;;;3.69;100.00;100334.66;5025744;28;20041;-74
2023/11/29 11:19:45;;;;;;;3.03;0.88;;;;;;;3.71;100.00;100335.47;5027982;28;20041;-74
2023/11/29 11:22:32;;;;;;;1.30;1.15;;;;;;;3.74;100.00;100331.09;5029524;28;20205;-74